Terminal Aerodrome Forecast
Issued by NWS Omaha/Valley, NE

Home | Current Version | Previous Version | Text Only | Print | Product List | Glossary Off
Versions: 1 2 3 4 5 6 7 8 9 10 11 12 13 14 15 16 17 18 19 20 21

000
FTUS43 KOAX 282320
TAFOFK
TAF
KOFK 282320Z 2900/2924 30012G18KT P6SM BKN070
     FM290100 27005KT P6SM SCT250
     FM290600 23004KT P6SM BKN100
     FM291400 23009KT P6SM SCT100=

USA.gov is the U.S. government's official web portal to all federal, state and local government web resources and services.